sensor_id;sensor_type;location;lat;lon;timestamp;P1;durP1;ratioP1;P2;durP2;ratioP2
67712;SDS011;67640;55.784;49.138;2023-04-24T00:03:43;10.37;;;3.47;;
67712;SDS011;67640;55.784;49.138;2023-04-24T00:08:48;8.78;;;3.00;;
67712;SDS011;67640;55.784;49.138;2023-04-24T00:14:06;10.95;;;3.30;;
67712;SDS011;67640;55.784;49.138;2023-04-24T00:19:11;13.53;;;2.90;;
67712;SDS011;67640;55.784;49.138;2023-04-24T00:24:30;10.93;;;2.95;;
67712;SDS011;67640;55.784;49.138;2023-04-24T00:29:49;7.30;;;2.60;;
67712;SDS011;67640;55.784;49.138;2023-04-24T00:34:55;10.67;;;3.07;;
67712;SDS011;67640;55.784;49.138;2023-04-24T00:40:14;7.10;;;2.58;;
67712;SDS011;67640;55.784;49.138;2023-04-24T00:45:20;7.05;;;3.25;;
67712;SDS011;67640;55.784;49.138;2023-04-24T00:50:39;6.47;;;2.60;;
67712;SDS011;67640;55.784;49.138;2023-04-24T00:55:44;10.13;;;3.00;;
67712;SDS011;67640;55.784;49.138;2023-04-24T01:01:04;11.53;;;3.10;;
67712;SDS011;67640;55.784;49.138;2023-04-24T01:11:51;7.50;;;2.98;;
67712;SDS011;67640;55.784;49.138;2023-04-24T01:16:57;9.55;;;2.98;;
67712;SDS011;67640;55.784;49.138;2023-04-24T01:22:15;7.57;;;2.80;;
67712;SDS011;67640;55.784;49.138;2023-04-24T01:27:21;12.35;;;3.08;;
67712;SDS011;67640;55.784;49.138;2023-04-24T01:32:44;8.40;;;3.10;;
67712;SDS011;67640;55.784;49.138;2023-04-24T01:37:49;13.75;;;3.27;;
67712;SDS011;67640;55.784;49.138;2023-04-24T01:42:55;9.23;;;3.03;;
67712;SDS011;67640;55.784;49.138;2023-04-24T01:48:01;9.60;;;3.10;;
67712;SDS011;67640;55.784;49.138;2023-04-24T01:53:31;7.80;;;2.60;;
67712;SDS011;67640;55.784;49.138;2023-04-24T01:58:36;7.37;;;2.60;;
67712;SDS011;67640;55.784;49.138;2023-04-24T02:03:42;8.90;;;2.55;;
67712;SDS011;67640;55.784;49.138;2023-04-24T02:09:00;5.60;;;2.10;;
67712;SDS011;67640;55.784;49.138;2023-04-24T02:14:06;5.87;;;2.27;;
67712;SDS011;67640;55.784;49.138;2023-04-24T02:19:34;7.57;;;2.37;;
67712;SDS011;67640;55.784;49.138;2023-04-24T02:24:40;9.38;;;1.95;;
67712;SDS011;67640;55.784;49.138;2023-04-24T02:29:45;6.53;;;2.03;;
67712;SDS011;67640;55.784;49.138;2023-04-24T02:35:03;8.07;;;2.23;;
67712;SDS011;67640;55.784;49.138;2023-04-24T02:40:08;7.50;;;1.65;;
67712;SDS011;67640;55.784;49.138;2023-04-24T02:45:14;6.45;;;1.80;;
67712;SDS011;67640;55.784;49.138;2023-04-24T02:50:36;6.13;;;1.90;;
67712;SDS011;67640;55.784;49.138;2023-04-24T02:55:41;7.47;;;1.90;;
67712;SDS011;67640;55.784;49.138;2023-04-24T03:01:03;6.08;;;1.87;;
67712;SDS011;67640;55.784;49.138;2023-04-24T03:06:09;4.45;;;1.70;;
67712;SDS011;67640;55.784;49.138;2023-04-24T03:11:14;8.50;;;2.53;;
67712;SDS011;67640;55.784;49.138;2023-04-24T03:16:33;8.53;;;2.12;;
67712;SDS011;67640;55.784;49.138;2023-04-24T03:21:52;8.73;;;2.17;;
67712;SDS011;67640;55.784;49.138;2023-04-24T03:26:58;13.20;;;2.15;;
67712;SDS011;67640;55.784;49.138;2023-04-24T03:32:03;12.43;;;2.10;;
67712;SDS011;67640;55.784;49.138;2023-04-24T03:37:09;8.13;;;2.00;;
67712;SDS011;67640;55.784;49.138;2023-04-24T03:42:29;9.57;;;2.53;;
67712;SDS011;67640;55.784;49.138;2023-04-24T03:47:47;8.87;;;2.33;;
67712;SDS011;67640;55.784;49.138;2023-04-24T03:52:52;12.70;;;2.55;;
67712;SDS011;67640;55.784;49.138;2023-04-24T03:57:57;12.73;;;3.07;;
67712;SDS011;67640;55.784;49.138;2023-04-24T04:03:17;17.60;;;3.00;;
67712;SDS011;67640;55.784;49.138;2023-04-24T04:08:40;6.65;;;2.60;;
67712;SDS011;67640;55.784;49.138;2023-04-24T04:13:45;12.58;;;3.33;;
67712;SDS011;67640;55.784;49.138;2023-04-24T04:18:54;12.40;;;3.53;;
67712;SDS011;67640;55.784;49.138;2023-04-24T04:24:20;15.08;;;5.85;;
67712;SDS011;67640;55.784;49.138;2023-04-24T04:29:25;14.60;;;3.25;;
67712;SDS011;67640;55.784;49.138;2023-04-24T04:34:44;16.55;;;4.12;;
67712;SDS011;67640;55.784;49.138;2023-04-24T04:39:50;18.73;;;3.83;;
67712;SDS011;67640;55.784;49.138;2023-04-24T04:44:55;20.37;;;3.58;;
67712;SDS011;67640;55.784;49.138;2023-04-24T04:50:14;15.45;;;3.92;;
67712;SDS011;67640;55.784;49.138;2023-04-24T04:55:19;23.37;;;3.53;;
67712;SDS011;67640;55.784;49.138;2023-04-24T05:00:37;16.47;;;3.00;;
67712;SDS011;67640;55.784;49.138;2023-04-24T05:05:43;22.62;;;4.20;;
67712;SDS011;67640;55.784;49.138;2023-04-24T05:11:02;25.27;;;5.57;;
67712;SDS011;67640;55.784;49.138;2023-04-24T05:16:21;16.32;;;4.25;;
67712;SDS011;67640;55.784;49.138;2023-04-24T05:21:26;12.20;;;3.58;;
67712;SDS011;67640;55.784;49.138;2023-04-24T05:26:45;17.90;;;4.00;;
67712;SDS011;67640;55.784;49.138;2023-04-24T05:31:51;15.35;;;3.80;;
67712;SDS011;67640;55.784;49.138;2023-04-24T05:36:56;24.23;;;3.70;;
67712;SDS011;67640;55.784;49.138;2023-04-24T05:42:15;21.27;;;4.90;;
67712;SDS011;67640;55.784;49.138;2023-04-24T05:47:20;17.65;;;4.22;;
67712;SDS011;67640;55.784;49.138;2023-04-24T05:52:39;21.30;;;5.77;;
67712;SDS011;67640;55.784;49.138;2023-04-24T05:57:58;23.27;;;3.85;;
67712;SDS011;67640;55.784;49.138;2023-04-24T06:03:17;16.37;;;4.10;;
67712;SDS011;67640;55.784;49.138;2023-04-24T06:08:36;15.00;;;3.17;;
67712;SDS011;67640;55.784;49.138;2023-04-24T06:13:42;12.50;;;2.40;;
67712;SDS011;67640;55.784;49.138;2023-04-24T06:18:48;18.77;;;2.70;;
67712;SDS011;67640;55.784;49.138;2023-04-24T06:24:07;11.57;;;2.92;;
67712;SDS011;67640;55.784;49.138;2023-04-24T06:29:12;8.33;;;2.30;;
67712;SDS011;67640;55.784;49.138;2023-04-24T06:34:32;12.13;;;2.50;;
67712;SDS011;67640;55.784;49.138;2023-04-24T06:39:37;10.50;;;2.00;;
67712;SDS011;67640;55.784;49.138;2023-04-24T06:44:47;15.28;;;1.90;;
67712;SDS011;67640;55.784;49.138;2023-04-24T06:50:06;12.97;;;2.13;;
67712;SDS011;67640;55.784;49.138;2023-04-24T06:55:25;9.53;;;1.73;;
67712;SDS011;67640;55.784;49.138;2023-04-24T07:00:30;12.55;;;1.80;;
67712;SDS011;67640;55.784;49.138;2023-04-24T07:05:36;8.27;;;1.70;;
67712;SDS011;67640;55.784;49.138;2023-04-24T07:10:56;6.67;;;1.50;;
67712;SDS011;67640;55.784;49.138;2023-04-24T07:16:15;6.28;;;1.45;;
67712;SDS011;67640;55.784;49.138;2023-04-24T07:21:34;7.60;;;1.90;;
67712;SDS011;67640;55.784;49.138;2023-04-24T07:26:48;11.03;;;2.05;;
67712;SDS011;67640;55.784;49.138;2023-04-24T07:31:53;9.07;;;1.80;;
67712;SDS011;67640;55.784;49.138;2023-04-24T07:37:12;11.65;;;1.72;;
67712;SDS011;67640;55.784;49.138;2023-04-24T07:42:31;25.62;;;3.90;;
67712;SDS011;67640;55.784;49.138;2023-04-24T07:47:36;13.28;;;1.85;;
67712;SDS011;67640;55.784;49.138;2023-04-24T07:52:55;6.27;;;1.43;;
67712;SDS011;67640;55.784;49.138;2023-04-24T07:58:00;20.30;;;1.98;;
67712;SDS011;67640;55.784;49.138;2023-04-24T08:03:08;17.48;;;1.80;;
67712;SDS011;67640;55.784;49.138;2023-04-24T08:08:27;9.20;;;1.50;;
67712;SDS011;67640;55.784;49.138;2023-04-24T08:13:49;4.65;;;1.35;;
67712;SDS011;67640;55.784;49.138;2023-04-24T08:18:54;5.05;;;1.80;;
67712;SDS011;67640;55.784;49.138;2023-04-24T08:23:59;4.23;;;1.50;;
67712;SDS011;67640;55.784;49.138;2023-04-24T08:29:18;5.00;;;1.90;;
67712;SDS011;67640;55.784;49.138;2023-04-24T08:34:24;11.75;;;1.65;;
67712;SDS011;67640;55.784;49.138;2023-04-24T08:39:43;10.05;;;2.10;;
67712;SDS011;67640;55.784;49.138;2023-04-24T08:44:49;5.60;;;1.20;;
67712;SDS011;67640;55.784;49.138;2023-04-24T08:50:08;4.50;;;1.40;;
67712;SDS011;67640;55.784;49.138;2023-04-24T08:55:27;9.53;;;1.50;;
67712;SDS011;67640;55.784;49.138;2023-04-24T09:00:35;18.07;;;2.80;;
67712;SDS011;67640;55.784;49.138;2023-04-24T09:05:42;6.25;;;1.40;;
67712;SDS011;67640;55.784;49.138;2023-04-24T09:11:02;7.35;;;1.12;;
67712;SDS011;67640;55.784;49.138;2023-04-24T09:16:07;4.85;;;1.20;;
67712;SDS011;67640;55.784;49.138;2023-04-24T09:21:31;24.20;;;2.10;;
67712;SDS011;67640;55.784;49.138;2023-04-24T09:26:47;10.93;;;1.75;;
67712;SDS011;67640;55.784;49.138;2023-04-24T09:37:45;6.43;;;1.50;;
67712;SDS011;67640;55.784;49.138;2023-04-24T09:48:31;10.82;;;1.70;;
67712;SDS011;67640;55.784;49.138;2023-04-24T09:53:50;4.75;;;1.20;;
67712;SDS011;67640;55.784;49.138;2023-04-24T10:04:32;41.95;;;2.67;;
67712;SDS011;67640;55.784;49.138;2023-04-24T10:09:38;7.87;;;1.80;;
67712;SDS011;67640;55.784;49.138;2023-04-24T10:14:57;5.83;;;1.40;;
67712;SDS011;67640;55.784;49.138;2023-04-24T10:20:16;32.90;;;2.00;;
67712;SDS011;67640;55.784;49.138;2023-04-24T10:25:36;7.58;;;1.57;;
67712;SDS011;67640;55.784;49.138;2023-04-24T10:30:54;20.32;;;2.85;;
67712;SDS011;67640;55.784;49.138;2023-04-24T10:36:01;14.43;;;2.50;;
67712;SDS011;67640;55.784;49.138;2023-04-24T10:41:13;20.05;;;3.15;;
67712;SDS011;67640;55.784;49.138;2023-04-24T10:46:32;29.85;;;2.20;;
67712;SDS011;67640;55.784;49.138;2023-04-24T10:51:59;8.90;;;1.80;;
67712;SDS011;67640;55.784;49.138;2023-04-24T11:02:40;9.40;;;1.20;;
67712;SDS011;67640;55.784;49.138;2023-04-24T11:13:26;7.27;;;1.60;;
67712;SDS011;67640;55.784;49.138;2023-04-24T11:23:52;4.37;;;1.32;;
67712;SDS011;67640;55.784;49.138;2023-04-24T11:29:05;5.10;;;1.43;;
67712;SDS011;67640;55.784;49.138;2023-04-24T11:34:18;10.03;;;1.92;;
67712;SDS011;67640;55.784;49.138;2023-04-24T11:39:37;7.50;;;1.50;;
67712;SDS011;67640;55.784;49.138;2023-04-24T11:44:42;35.88;;;3.17;;
67712;SDS011;67640;55.784;49.138;2023-04-24T11:50:02;13.50;;;2.00;;
67712;SDS011;67640;55.784;49.138;2023-04-24T11:55:23;8.35;;;1.60;;
67712;SDS011;67640;55.784;49.138;2023-04-24T12:00:42;4.03;;;1.40;;
67712;SDS011;67640;55.784;49.138;2023-04-24T12:11:27;8.65;;;1.90;;
67712;SDS011;67640;55.784;49.138;2023-04-24T12:28:13;29.98;;;3.05;;
67712;SDS011;67640;55.784;49.138;2023-04-24T12:33:32;14.07;;;2.57;;
67712;SDS011;67640;55.784;49.138;2023-04-24T12:38:52;31.90;;;2.92;;
67712;SDS011;67640;55.784;49.138;2023-04-24T12:43:58;5.67;;;1.83;;
67712;SDS011;67640;55.784;49.138;2023-04-24T12:49:04;9.78;;;1.62;;
67712;SDS011;67640;55.784;49.138;2023-04-24T12:54:23;9.60;;;2.33;;
67712;SDS011;67640;55.784;49.138;2023-04-24T12:59:42;5.97;;;1.50;;
67712;SDS011;67640;55.784;49.138;2023-04-24T13:04:47;15.00;;;2.20;;
67712;SDS011;67640;55.784;49.138;2023-04-24T13:10:07;6.77;;;2.50;;
67712;SDS011;67640;55.784;49.138;2023-04-24T13:15:29;48.43;;;3.80;;
67712;SDS011;67640;55.784;49.138;2023-04-24T13:20:35;20.00;;;3.35;;
67712;SDS011;67640;55.784;49.138;2023-04-24T13:25:40;12.30;;;2.00;;
67712;SDS011;67640;55.784;49.138;2023-04-24T13:30:53;8.20;;;2.00;;
67712;SDS011;67640;55.784;49.138;2023-04-24T13:36:12;19.82;;;2.65;;
67712;SDS011;67640;55.784;49.138;2023-04-24T13:41:32;31.40;;;3.67;;
67712;SDS011;67640;55.784;49.138;2023-04-24T13:46:52;13.25;;;3.52;;
67712;SDS011;67640;55.784;49.138;2023-04-24T13:52:12;10.78;;;2.70;;
67712;SDS011;67640;55.784;49.138;2023-04-24T13:57:31;14.35;;;3.00;;
67712;SDS011;67640;55.784;49.138;2023-04-24T14:02:50;9.80;;;2.70;;
67712;SDS011;67640;55.784;49.138;2023-04-24T14:07:56;10.47;;;2.13;;
67712;SDS011;67640;55.784;49.138;2023-04-24T14:13:15;8.38;;;1.75;;
67712;SDS011;67640;55.784;49.138;2023-04-24T14:18:34;54.63;;;4.12;;
67712;SDS011;67640;55.784;49.138;2023-04-24T14:23:53;9.50;;;2.35;;
67712;SDS011;67640;55.784;49.138;2023-04-24T14:28:59;8.45;;;2.47;;
67712;SDS011;67640;55.784;49.138;2023-04-24T14:34:18;13.77;;;2.30;;
67712;SDS011;67640;55.784;49.138;2023-04-24T14:39:37;12.37;;;2.40;;
67712;SDS011;67640;55.784;49.138;2023-04-24T14:44:56;20.65;;;2.67;;
67712;SDS011;67640;55.784;49.138;2023-04-24T14:50:16;8.85;;;2.10;;
67712;SDS011;67640;55.784;49.138;2023-04-24T14:55:35;19.25;;;3.05;;
67712;SDS011;67640;55.784;49.138;2023-04-24T15:00:49;16.77;;;3.07;;
67712;SDS011;67640;55.784;49.138;2023-04-24T15:06:10;12.50;;;2.52;;
67712;SDS011;67640;55.784;49.138;2023-04-24T15:11:29;9.35;;;2.30;;
67712;SDS011;67640;55.784;49.138;2023-04-24T15:16:48;10.40;;;2.95;;
67712;SDS011;67640;55.784;49.138;2023-04-24T15:22:07;11.80;;;2.40;;
67712;SDS011;67640;55.784;49.138;2023-04-24T15:27:13;17.67;;;3.23;;
67712;SDS011;67640;55.784;49.138;2023-04-24T15:32:37;11.53;;;2.43;;
67712;SDS011;67640;55.784;49.138;2023-04-24T15:37:43;13.08;;;3.12;;
67712;SDS011;67640;55.784;49.138;2023-04-24T15:43:02;10.17;;;2.50;;
67712;SDS011;67640;55.784;49.138;2023-04-24T15:48:21;10.38;;;3.72;;
67712;SDS011;67640;55.784;49.138;2023-04-24T15:53:26;21.73;;;3.25;;
67712;SDS011;67640;55.784;49.138;2023-04-24T15:58:46;25.57;;;3.40;;
67712;SDS011;67640;55.784;49.138;2023-04-24T16:04:04;16.10;;;3.70;;
67712;SDS011;67640;55.784;49.138;2023-04-24T16:09:10;24.60;;;3.98;;
67712;SDS011;67640;55.784;49.138;2023-04-24T16:14:15;19.20;;;4.60;;
67712;SDS011;67640;55.784;49.138;2023-04-24T16:19:34;11.68;;;3.65;;
67712;SDS011;67640;55.784;49.138;2023-04-24T16:24:53;10.15;;;3.40;;
67712;SDS011;67640;55.784;49.138;2023-04-24T16:29:59;14.55;;;3.95;;
67712;SDS011;67640;55.784;49.138;2023-04-24T16:35:18;15.23;;;3.60;;
67712;SDS011;67640;55.784;49.138;2023-04-24T16:40:23;19.25;;;3.92;;
67712;SDS011;67640;55.784;49.138;2023-04-24T16:45:42;10.53;;;3.37;;
67712;SDS011;67640;55.784;49.138;2023-04-24T16:51:01;18.70;;;2.62;;
67712;SDS011;67640;55.784;49.138;2023-04-24T16:56:20;16.50;;;3.00;;
67712;SDS011;67640;55.784;49.138;2023-04-24T17:01:39;11.60;;;3.05;;
67712;SDS011;67640;55.784;49.138;2023-04-24T17:06:44;14.78;;;3.55;;
67712;SDS011;67640;55.784;49.138;2023-04-24T17:11:58;17.67;;;3.57;;
67712;SDS011;67640;55.784;49.138;2023-04-24T17:17:15;14.75;;;4.05;;
67712;SDS011;67640;55.784;49.138;2023-04-24T17:22:21;49.05;;;4.90;;
67712;SDS011;67640;55.784;49.138;2023-04-24T17:27:40;14.00;;;3.63;;
67712;SDS011;67640;55.784;49.138;2023-04-24T17:32:57;14.23;;;3.50;;
67712;SDS011;67640;55.784;49.138;2023-04-24T17:38:03;15.23;;;3.80;;
67712;SDS011;67640;55.784;49.138;2023-04-24T17:43:22;12.13;;;4.20;;
67712;SDS011;67640;55.784;49.138;2023-04-24T17:48:28;18.48;;;4.17;;
67712;SDS011;67640;55.784;49.138;2023-04-24T17:53:34;13.25;;;4.85;;
67712;SDS011;67640;55.784;49.138;2023-04-24T17:58:51;16.67;;;5.00;;
67712;SDS011;67640;55.784;49.138;2023-04-24T18:03:57;11.40;;;4.60;;
67712;SDS011;67640;55.784;49.138;2023-04-24T18:09:16;17.42;;;5.65;;
67712;SDS011;67640;55.784;49.138;2023-04-24T18:14:22;55.60;;;5.90;;
67712;SDS011;67640;55.784;49.138;2023-04-24T18:19:32;11.22;;;4.30;;
67712;SDS011;67640;55.784;49.138;2023-04-24T18:24:51;17.02;;;4.50;;
67712;SDS011;67640;55.784;49.138;2023-04-24T18:29:57;12.00;;;3.40;;
67712;SDS011;67640;55.784;49.138;2023-04-24T18:35:16;72.15;;;4.92;;
67712;SDS011;67640;55.784;49.138;2023-04-24T18:40:33;11.68;;;2.72;;
67712;SDS011;67640;55.784;49.138;2023-04-24T18:45:38;13.63;;;3.10;;
67712;SDS011;67640;55.784;49.138;2023-04-24T18:50:57;13.10;;;2.90;;
67712;SDS011;67640;55.784;49.138;2023-04-24T18:56:19;8.73;;;2.90;;
67712;SDS011;67640;55.784;49.138;2023-04-24T19:01:38;9.20;;;2.95;;
67712;SDS011;67640;55.784;49.138;2023-04-24T19:06:57;12.98;;;3.70;;
67712;SDS011;67640;55.784;49.138;2023-04-24T19:12:03;22.40;;;3.40;;
67712;SDS011;67640;55.784;49.138;2023-04-24T19:17:22;7.97;;;2.85;;
67712;SDS011;67640;55.784;49.138;2023-04-24T19:23:04;9.83;;;2.80;;
67712;SDS011;67640;55.784;49.138;2023-04-24T19:28:09;9.03;;;3.10;;
67712;SDS011;67640;55.784;49.138;2023-04-24T19:33:15;9.08;;;2.60;;
67712;SDS011;67640;55.784;49.138;2023-04-24T19:38:21;10.03;;;3.50;;
67712;SDS011;67640;55.784;49.138;2023-04-24T19:43:39;8.53;;;2.53;;
67712;SDS011;67640;55.784;49.138;2023-04-24T19:48:45;8.58;;;2.33;;
67712;SDS011;67640;55.784;49.138;2023-04-24T19:53:51;8.08;;;2.12;;
67712;SDS011;67640;55.784;49.138;2023-04-24T19:58:55;8.23;;;2.33;;
67712;SDS011;67640;55.784;49.138;2023-04-24T20:04:14;7.35;;;2.67;;
67712;SDS011;67640;55.784;49.138;2023-04-24T20:09:34;6.60;;;2.33;;
67712;SDS011;67640;55.784;49.138;2023-04-24T20:14:39;11.88;;;2.45;;
67712;SDS011;67640;55.784;49.138;2023-04-24T20:19:57;8.20;;;2.30;;
67712;SDS011;67640;55.784;49.138;2023-04-24T20:25:03;10.18;;;2.80;;
67712;SDS011;67640;55.784;49.138;2023-04-24T20:30:22;11.87;;;2.43;;
67712;SDS011;67640;55.784;49.138;2023-04-24T20:35:27;10.43;;;3.10;;
67712;SDS011;67640;55.784;49.138;2023-04-24T20:40:47;7.95;;;3.37;;
67712;SDS011;67640;55.784;49.138;2023-04-24T20:45:52;6.60;;;2.85;;
67712;SDS011;67640;55.784;49.138;2023-04-24T20:50:59;6.30;;;2.90;;
67712;SDS011;67640;55.784;49.138;2023-04-24T20:56:19;8.23;;;3.00;;
67712;SDS011;67640;55.784;49.138;2023-04-24T21:01:38;7.73;;;2.47;;
67712;SDS011;67640;55.784;49.138;2023-04-24T21:06:44;10.38;;;2.80;;
67712;SDS011;67640;55.784;49.138;2023-04-24T21:12:05;6.78;;;2.33;;
67712;SDS011;67640;55.784;49.138;2023-04-24T21:17:10;9.63;;;2.63;;
67712;SDS011;67640;55.784;49.138;2023-04-24T21:22:16;10.25;;;2.50;;
67712;SDS011;67640;55.784;49.138;2023-04-24T21:27:35;10.55;;;3.02;;
67712;SDS011;67640;55.784;49.138;2023-04-24T21:32:54;12.63;;;2.70;;
67712;SDS011;67640;55.784;49.138;2023-04-24T21:38:12;5.05;;;2.30;;
67712;SDS011;67640;55.784;49.138;2023-04-24T21:43:17;9.03;;;2.40;;
67712;SDS011;67640;55.784;49.138;2023-04-24T21:48:37;12.67;;;2.57;;
67712;SDS011;67640;55.784;49.138;2023-04-24T21:53:42;11.35;;;2.70;;
67712;SDS011;67640;55.784;49.138;2023-04-24T21:59:02;23.18;;;3.25;;
67712;SDS011;67640;55.784;49.138;2023-04-24T22:04:21;12.80;;;3.00;;
67712;SDS011;67640;55.784;49.138;2023-04-24T22:09:26;12.20;;;2.87;;
67712;SDS011;67640;55.784;49.138;2023-04-24T22:14:44;19.75;;;2.90;;
67712;SDS011;67640;55.784;49.138;2023-04-24T22:19:50;10.30;;;2.90;;
67712;SDS011;67640;55.784;49.138;2023-04-24T22:25:23;10.90;;;2.60;;
67712;SDS011;67640;55.784;49.138;2023-04-24T22:30:28;13.45;;;3.35;;
67712;SDS011;67640;55.784;49.138;2023-04-24T22:35:34;14.37;;;3.77;;
67712;SDS011;67640;55.784;49.138;2023-04-24T22:40:53;27.70;;;5.50;;
67712;SDS011;67640;55.784;49.138;2023-04-24T22:46:12;22.55;;;5.40;;
67712;SDS011;67640;55.784;49.138;2023-04-24T22:51:31;21.30;;;5.65;;
67712;SDS011;67640;55.784;49.138;2023-04-24T22:56:50;29.32;;;5.70;;
67712;SDS011;67640;55.784;49.138;2023-04-24T23:01:56;19.40;;;5.40;;
67712;SDS011;67640;55.784;49.138;2023-04-24T23:07:06;19.65;;;4.55;;
67712;SDS011;67640;55.784;49.138;2023-04-24T23:12:13;12.60;;;3.30;;
67712;SDS011;67640;55.784;49.138;2023-04-24T23:17:32;10.25;;;3.10;;
67712;SDS011;67640;55.784;49.138;2023-04-24T23:22:49;11.60;;;3.10;;
67712;SDS011;67640;55.784;49.138;2023-04-24T23:27:56;19.12;;;4.05;;
67712;SDS011;67640;55.784;49.138;2023-04-24T23:33:02;16.17;;;3.73;;
67712;SDS011;67640;55.784;49.138;2023-04-24T23:38:20;11.17;;;3.70;;
67712;SDS011;67640;55.784;49.138;2023-04-24T23:43:25;11.55;;;4.00;;
67712;SDS011;67640;55.784;49.138;2023-04-24T23:48:44;15.17;;;4.40;;
67712;SDS011;67640;55.784;49.138;2023-04-24T23:54:12;13.20;;;3.93;;
67712;SDS011;67640;55.784;49.138;2023-04-24T23:59:18;11.90;;;4.53;;
